sensor_id;sensor_type;location;lat;lon;timestamp;temperature;humidity
48666;DHT22;34452;50.796;4.994;2023-04-03T00:01:31;3.90;99.90
48666;DHT22;34452;50.796;4.994;2023-04-03T00:03:57;3.90;99.90
48666;DHT22;34452;50.796;4.994;2023-04-03T00:06:24;3.90;99.90
48666;DHT22;34452;50.796;4.994;2023-04-03T00:08:50;4.00;99.90
48666;DHT22;34452;50.796;4.994;2023-04-03T00:11:17;3.90;99.90
48666;DHT22;34452;50.796;4.994;2023-04-03T00:13:42;3.90;99.90
48666;DHT22;34452;50.796;4.994;2023-04-03T00:16:09;3.90;99.90
48666;DHT22;34452;50.796;4.994;2023-04-03T00:18:36;3.90;99.90
48666;DHT22;34452;50.796;4.994;2023-04-03T00:21:02;3.90;99.90
48666;DHT22;34452;50.796;4.994;2023-04-03T00:23:28;3.90;99.90
48666;DHT22;34452;50.796;4.994;2023-04-03T00:25:54;3.90;99.90
48666;DHT22;34452;50.796;4.994;2023-04-03T00:28:20;3.80;99.90
48666;DHT22;34452;50.796;4.994;2023-04-03T00:30:46;3.80;99.90
48666;DHT22;34452;50.796;4.994;2023-04-03T00:33:13;3.80;99.90
48666;DHT22;34452;50.796;4.994;2023-04-03T00:35:39;3.70;99.90
48666;DHT22;34452;50.796;4.994;2023-04-03T00:38:05;3.70;99.90
48666;DHT22;34452;50.796;4.994;2023-04-03T00:40:35;3.60;99.90
48666;DHT22;34452;50.796;4.994;2023-04-03T00:43:01;3.60;99.90
48666;DHT22;34452;50.796;4.994;2023-04-03T00:45:32;3.50;99.90
48666;DHT22;34452;50.796;4.994;2023-04-03T00:47:58;3.50;99.90
48666;DHT22;34452;50.796;4.994;2023-04-03T00:50:27;3.60;99.90
48666;DHT22;34452;50.796;4.994;2023-04-03T00:52:53;3.60;99.90
48666;DHT22;34452;50.796;4.994;2023-04-03T00:55:19;3.60;99.90
48666;DHT22;34452;50.796;4.994;2023-04-03T00:57:46;3.60;99.90
48666;DHT22;34452;50.796;4.994;2023-04-03T01:00:13;3.60;99.90
48666;DHT22;34452;50.796;4.994;2023-04-03T01:02:40;3.60;99.90
48666;DHT22;34452;50.796;4.994;2023-04-03T01:05:06;3.60;99.90
48666;DHT22;34452;50.796;4.994;2023-04-03T01:07:32;3.60;99.90
48666;DHT22;34452;50.796;4.994;2023-04-03T01:10:05;3.60;99.90
48666;DHT22;34452;50.796;4.994;2023-04-03T01:12:35;3.50;99.90
48666;DHT22;34452;50.796;4.994;2023-04-03T01:15:05;3.50;99.90
48666;DHT22;34452;50.796;4.994;2023-04-03T01:17:32;3.50;99.90
48666;DHT22;34452;50.796;4.994;2023-04-03T01:25:28;3.50;99.90
48666;DHT22;34452;50.796;4.994;2023-04-03T01:27:54;3.40;99.90
48666;DHT22;34452;50.796;4.994;2023-04-03T01:30:21;3.40;99.90
48666;DHT22;34452;50.796;4.994;2023-04-03T01:32:49;3.40;99.90
48666;DHT22;34452;50.796;4.994;2023-04-03T01:35:15;3.40;99.90
48666;DHT22;34452;50.796;4.994;2023-04-03T01:37:40;3.40;99.90
48666;DHT22;34452;50.796;4.994;2023-04-03T01:40:07;3.40;99.90
48666;DHT22;34452;50.796;4.994;2023-04-03T01:42:33;3.40;99.90
48666;DHT22;34452;50.796;4.994;2023-04-03T01:44:59;3.40;99.90
48666;DHT22;34452;50.796;4.994;2023-04-03T01:47:25;3.30;99.90
48666;DHT22;34452;50.796;4.994;2023-04-03T01:49:50;3.40;99.90
48666;DHT22;34452;50.796;4.994;2023-04-03T01:52:16;3.30;99.90
48666;DHT22;34452;50.796;4.994;2023-04-03T01:54:42;3.30;99.90
48666;DHT22;34452;50.796;4.994;2023-04-03T01:57:07;3.30;99.90
48666;DHT22;34452;50.796;4.994;2023-04-03T01:59:33;3.20;99.90
48666;DHT22;34452;50.796;4.994;2023-04-03T02:01:59;3.20;99.90
48666;DHT22;34452;50.796;4.994;2023-04-03T02:04:24;3.10;99.90
48666;DHT22;34452;50.796;4.994;2023-04-03T02:06:50;3.10;99.90
48666;DHT22;34452;50.796;4.994;2023-04-03T02:09:16;3.10;99.90
48666;DHT22;34452;50.796;4.994;2023-04-03T02:11:41;3.10;99.90
48666;DHT22;34452;50.796;4.994;2023-04-03T02:14:07;3.00;99.90
48666;DHT22;34452;50.796;4.994;2023-04-03T02:16:33;2.90;99.90
48666;DHT22;34452;50.796;4.994;2023-04-03T02:18:59;2.90;99.90
48666;DHT22;34452;50.796;4.994;2023-04-03T02:21:24;2.90;99.90
48666;DHT22;34452;50.796;4.994;2023-04-03T02:23:50;2.90;99.90
48666;DHT22;34452;50.796;4.994;2023-04-03T02:26:16;2.90;99.90
48666;DHT22;34452;50.796;4.994;2023-04-03T02:28:42;2.80;99.90
48666;DHT22;34452;50.796;4.994;2023-04-03T02:31:08;2.70;99.90
48666;DHT22;34452;50.796;4.994;2023-04-03T02:33:35;2.60;99.90
48666;DHT22;34452;50.796;4.994;2023-04-03T02:36:03;2.60;99.90
48666;DHT22;34452;50.796;4.994;2023-04-03T02:38:29;2.50;99.90
48666;DHT22;34452;50.796;4.994;2023-04-03T02:41:13;2.50;99.90
48666;DHT22;34452;50.796;4.994;2023-04-03T02:43:39;2.50;99.90
48666;DHT22;34452;50.796;4.994;2023-04-03T02:46:05;2.40;99.90
48666;DHT22;34452;50.796;4.994;2023-04-03T02:48:32;2.30;99.90
48666;DHT22;34452;50.796;4.994;2023-04-03T02:50:57;2.30;99.90
48666;DHT22;34452;50.796;4.994;2023-04-03T02:53:23;2.20;99.90
48666;DHT22;34452;50.796;4.994;2023-04-03T02:55:49;2.10;99.90
48666;DHT22;34452;50.796;4.994;2023-04-03T02:58:15;2.10;99.90
48666;DHT22;34452;50.796;4.994;2023-04-03T03:00:41;2.20;99.90
48666;DHT22;34452;50.796;4.994;2023-04-03T03:03:07;2.30;99.90
48666;DHT22;34452;50.796;4.994;2023-04-03T03:05:33;2.40;99.90
48666;DHT22;34452;50.796;4.994;2023-04-03T03:07:59;2.50;99.90
48666;DHT22;34452;50.796;4.994;2023-04-03T03:10:25;2.60;99.90
48666;DHT22;34452;50.796;4.994;2023-04-03T03:12:50;2.60;99.90
48666;DHT22;34452;50.796;4.994;2023-04-03T03:15:16;2.60;99.90
48666;DHT22;34452;50.796;4.994;2023-04-03T03:17:43;2.60;99.90
48666;DHT22;34452;50.796;4.994;2023-04-03T03:20:09;2.60;99.90
48666;DHT22;34452;50.796;4.994;2023-04-03T03:22:35;2.60;99.90
48666;DHT22;34452;50.796;4.994;2023-04-03T03:25:01;2.60;99.90
48666;DHT22;34452;50.796;4.994;2023-04-03T03:27:28;2.60;99.90
48666;DHT22;34452;50.796;4.994;2023-04-03T03:29:54;2.60;99.90
48666;DHT22;34452;50.796;4.994;2023-04-03T03:32:19;2.50;99.90
48666;DHT22;34452;50.796;4.994;2023-04-03T03:34:45;2.50;99.90
48666;DHT22;34452;50.796;4.994;2023-04-03T03:37:11;2.50;99.90
48666;DHT22;34452;50.796;4.994;2023-04-03T03:39:37;2.50;99.90
48666;DHT22;34452;50.796;4.994;2023-04-03T03:42:03;2.60;99.90
48666;DHT22;34452;50.796;4.994;2023-04-03T03:44:29;2.50;99.90
48666;DHT22;34452;50.796;4.994;2023-04-03T03:46:55;2.60;99.90
48666;DHT22;34452;50.796;4.994;2023-04-03T03:49:21;2.60;99.90
48666;DHT22;34452;50.796;4.994;2023-04-03T03:51:47;2.50;99.90
48666;DHT22;34452;50.796;4.994;2023-04-03T03:54:13;2.50;99.90
48666;DHT22;34452;50.796;4.994;2023-04-03T03:56:39;2.50;99.90
48666;DHT22;34452;50.796;4.994;2023-04-03T03:59:05;2.40;99.90
48666;DHT22;34452;50.796;4.994;2023-04-03T04:01:31;2.40;99.90
48666;DHT22;34452;50.796;4.994;2023-04-03T04:03:56;2.30;99.90
48666;DHT22;34452;50.796;4.994;2023-04-03T04:06:22;2.20;99.90
48666;DHT22;34452;50.796;4.994;2023-04-03T04:08:48;2.10;99.90
48666;DHT22;34452;50.796;4.994;2023-04-03T04:11:14;2.10;99.90
48666;DHT22;34452;50.796;4.994;2023-04-03T04:13:40;2.20;99.90
48666;DHT22;34452;50.796;4.994;2023-04-03T04:16:07;2.20;99.90
48666;DHT22;34452;50.796;4.994;2023-04-03T04:18:33;2.20;99.90
48666;DHT22;34452;50.796;4.994;2023-04-03T04:20:58;2.20;99.90
48666;DHT22;34452;50.796;4.994;2023-04-03T04:23:24;2.20;99.90
48666;DHT22;34452;50.796;4.994;2023-04-03T04:25:50;2.20;99.90
48666;DHT22;34452;50.796;4.994;2023-04-03T04:28:16;2.20;99.90
48666;DHT22;34452;50.796;4.994;2023-04-03T04:30:42;2.10;99.90
48666;DHT22;34452;50.796;4.994;2023-04-03T04:33:08;2.00;99.90
48666;DHT22;34452;50.796;4.994;2023-04-03T04:35:34;2.00;99.90
48666;DHT22;34452;50.796;4.994;2023-04-03T04:38:00;2.00;99.90
48666;DHT22;34452;50.796;4.994;2023-04-03T04:40:26;2.00;99.90
48666;DHT22;34452;50.796;4.994;2023-04-03T04:42:52;2.00;99.90
48666;DHT22;34452;50.796;4.994;2023-04-03T04:45:18;2.00;99.90
48666;DHT22;34452;50.796;4.994;2023-04-03T04:47:43;1.90;99.90
48666;DHT22;34452;50.796;4.994;2023-04-03T04:50:10;1.90;99.90
48666;DHT22;34452;50.796;4.994;2023-04-03T04:52:37;1.80;99.90
48666;DHT22;34452;50.796;4.994;2023-04-03T04:55:03;1.70;99.90
48666;DHT22;34452;50.796;4.994;2023-04-03T04:57:28;1.80;99.90
48666;DHT22;34452;50.796;4.994;2023-04-03T04:59:54;1.70;99.90
48666;DHT22;34452;50.796;4.994;2023-04-03T05:02:20;1.70;99.90
48666;DHT22;34452;50.796;4.994;2023-04-03T05:04:45;1.60;99.90
48666;DHT22;34452;50.796;4.994;2023-04-03T05:07:11;1.60;99.90
48666;DHT22;34452;50.796;4.994;2023-04-03T05:09:37;1.50;99.90
48666;DHT22;34452;50.796;4.994;2023-04-03T05:12:03;1.50;99.90
48666;DHT22;34452;50.796;4.994;2023-04-03T05:14:29;1.50;99.90
48666;DHT22;34452;50.796;4.994;2023-04-03T05:16:55;1.60;99.90
48666;DHT22;34452;50.796;4.994;2023-04-03T05:19:21;1.50;99.90
48666;DHT22;34452;50.796;4.994;2023-04-03T05:21:47;1.50;99.90
48666;DHT22;34452;50.796;4.994;2023-04-03T05:24:14;1.50;99.90
48666;DHT22;34452;50.796;4.994;2023-04-03T05:26:40;1.50;99.90
48666;DHT22;34452;50.796;4.994;2023-04-03T05:29:06;1.50;99.90
48666;DHT22;34452;50.796;4.994;2023-04-03T05:31:32;1.50;99.90
48666;DHT22;34452;50.796;4.994;2023-04-03T05:33:58;1.50;99.90
48666;DHT22;34452;50.796;4.994;2023-04-03T05:36:24;1.50;99.90
48666;DHT22;34452;50.796;4.994;2023-04-03T05:38:49;1.50;99.90
48666;DHT22;34452;50.796;4.994;2023-04-03T05:41:15;1.50;99.90
48666;DHT22;34452;50.796;4.994;2023-04-03T05:43:41;1.60;99.90
48666;DHT22;34452;50.796;4.994;2023-04-03T05:46:12;1.60;99.90
48666;DHT22;34452;50.796;4.994;2023-04-03T05:48:38;1.70;99.90
48666;DHT22;34452;50.796;4.994;2023-04-03T05:51:05;1.80;99.90
48666;DHT22;34452;50.796;4.994;2023-04-03T05:53:33;1.90;99.90
48666;DHT22;34452;50.796;4.994;2023-04-03T05:56:00;1.90;99.90
48666;DHT22;34452;50.796;4.994;2023-04-03T05:58:26;2.00;99.90
48666;DHT22;34452;50.796;4.994;2023-04-03T06:00:52;2.10;99.90
48666;DHT22;34452;50.796;4.994;2023-04-03T06:03:18;2.10;99.90
48666;DHT22;34452;50.796;4.994;2023-04-03T06:05:43;2.20;99.90
48666;DHT22;34452;50.796;4.994;2023-04-03T06:08:09;2.30;99.90
48666;DHT22;34452;50.796;4.994;2023-04-03T06:10:35;2.30;99.90
48666;DHT22;34452;50.796;4.994;2023-04-03T06:13:01;2.30;99.90
48666;DHT22;34452;50.796;4.994;2023-04-03T06:15:27;2.30;99.90
48666;DHT22;34452;50.796;4.994;2023-04-03T06:17:53;2.30;99.90
48666;DHT22;34452;50.796;4.994;2023-04-03T06:20:19;2.30;99.90
48666;DHT22;34452;50.796;4.994;2023-04-03T06:22:45;2.40;99.90
48666;DHT22;34452;50.796;4.994;2023-04-03T06:25:11;2.50;99.90
48666;DHT22;34452;50.796;4.994;2023-04-03T06:27:38;2.60;99.90
48666;DHT22;34452;50.796;4.994;2023-04-03T06:30:04;2.60;99.90
48666;DHT22;34452;50.796;4.994;2023-04-03T06:32:30;2.60;99.90
48666;DHT22;34452;50.796;4.994;2023-04-03T06:34:56;2.60;99.90
48666;DHT22;34452;50.796;4.994;2023-04-03T06:37:22;2.70;99.90
48666;DHT22;34452;50.796;4.994;2023-04-03T06:39:52;2.80;99.90
48666;DHT22;34452;50.796;4.994;2023-04-03T06:42:17;2.80;99.90
48666;DHT22;34452;50.796;4.994;2023-04-03T06:44:43;2.90;99.90
48666;DHT22;34452;50.796;4.994;2023-04-03T06:47:12;2.90;99.90
48666;DHT22;34452;50.796;4.994;2023-04-03T06:49:38;3.00;99.90
48666;DHT22;34452;50.796;4.994;2023-04-03T06:52:04;3.10;99.90
48666;DHT22;34452;50.796;4.994;2023-04-03T06:54:31;3.20;99.90
48666;DHT22;34452;50.796;4.994;2023-04-03T06:56:57;3.20;99.90
48666;DHT22;34452;50.796;4.994;2023-04-03T06:59:23;3.20;99.90
48666;DHT22;34452;50.796;4.994;2023-04-03T07:01:48;3.30;99.90
48666;DHT22;34452;50.796;4.994;2023-04-03T07:04:14;3.40;99.90
48666;DHT22;34452;50.796;4.994;2023-04-03T07:06:40;3.50;99.90
48666;DHT22;34452;50.796;4.994;2023-04-03T07:09:08;3.50;99.90
48666;DHT22;34452;50.796;4.994;2023-04-03T07:11:34;3.60;99.90
48666;DHT22;34452;50.796;4.994;2023-04-03T07:14:01;3.60;99.90
48666;DHT22;34452;50.796;4.994;2023-04-03T07:16:27;3.70;99.90
48666;DHT22;34452;50.796;4.994;2023-04-03T07:18:53;3.80;99.90
48666;DHT22;34452;50.796;4.994;2023-04-03T07:21:19;3.90;99.90
48666;DHT22;34452;50.796;4.994;2023-04-03T07:23:44;4.00;99.90
48666;DHT22;34452;50.796;4.994;2023-04-03T07:26:10;4.00;99.90
48666;DHT22;34452;50.796;4.994;2023-04-03T07:28:36;4.10;99.90
48666;DHT22;34452;50.796;4.994;2023-04-03T07:31:05;4.20;99.90
48666;DHT22;34452;50.796;4.994;2023-04-03T07:33:32;4.30;99.90
48666;DHT22;34452;50.796;4.994;2023-04-03T07:35:57;4.40;99.90
48666;DHT22;34452;50.796;4.994;2023-04-03T07:38:23;4.40;99.90
48666;DHT22;34452;50.796;4.994;2023-04-03T07:40:50;4.50;99.90
48666;DHT22;34452;50.796;4.994;2023-04-03T07:43:17;4.50;99.90
48666;DHT22;34452;50.796;4.994;2023-04-03T07:45:43;4.60;99.90
48666;DHT22;34452;50.796;4.994;2023-04-03T07:48:11;4.70;99.90
48666;DHT22;34452;50.796;4.994;2023-04-03T07:50:37;4.70;99.90
48666;DHT22;34452;50.796;4.994;2023-04-03T07:53:03;4.80;99.90
48666;DHT22;34452;50.796;4.994;2023-04-03T07:55:28;4.90;99.90
48666;DHT22;34452;50.796;4.994;2023-04-03T07:57:54;4.90;99.90
48666;DHT22;34452;50.796;4.994;2023-04-03T08:00:21;5.00;99.90
48666;DHT22;34452;50.796;4.994;2023-04-03T08:02:46;5.10;99.90
48666;DHT22;34452;50.796;4.994;2023-04-03T08:05:17;5.20;99.90
48666;DHT22;34452;50.796;4.994;2023-04-03T08:07:43;5.20;99.90
48666;DHT22;34452;50.796;4.994;2023-04-03T08:10:09;5.30;99.90
48666;DHT22;34452;50.796;4.994;2023-04-03T08:12:34;5.40;99.90
48666;DHT22;34452;50.796;4.994;2023-04-03T08:15:02;5.40;99.90
48666;DHT22;34452;50.796;4.994;2023-04-03T08:17:28;5.50;99.90
48666;DHT22;34452;50.796;4.994;2023-04-03T08:19:54;5.60;99.90
48666;DHT22;34452;50.796;4.994;2023-04-03T08:22:20;5.70;99.90
48666;DHT22;34452;50.796;4.994;2023-04-03T08:24:46;5.70;99.90
48666;DHT22;34452;50.796;4.994;2023-04-03T08:27:12;5.80;99.90
48666;DHT22;34452;50.796;4.994;2023-04-03T08:29:37;5.90;99.90
48666;DHT22;34452;50.796;4.994;2023-04-03T08:32:04;6.00;99.90
48666;DHT22;34452;50.796;4.994;2023-04-03T08:34:30;6.00;99.90
48666;DHT22;34452;50.796;4.994;2023-04-03T08:36:56;6.10;99.90
48666;DHT22;34452;50.796;4.994;2023-04-03T08:39:22;6.10;99.90
48666;DHT22;34452;50.796;4.994;2023-04-03T08:41:47;6.10;99.90
48666;DHT22;34452;50.796;4.994;2023-04-03T08:49:35;6.40;99.90
48666;DHT22;34452;50.796;4.994;2023-04-03T08:52:08;6.40;99.90
48666;DHT22;34452;50.796;4.994;2023-04-03T08:54:52;6.50;99.90
48666;DHT22;34452;50.796;4.994;2023-04-03T08:57:35;6.60;99.90
48666;DHT22;34452;50.796;4.994;2023-04-03T09:00:13;6.60;99.90
48666;DHT22;34452;50.796;4.994;2023-04-03T09:02:45;6.70;99.90
48666;DHT22;34452;50.796;4.994;2023-04-03T09:05:17;6.80;99.90
48666;DHT22;34452;50.796;4.994;2023-04-03T09:07:49;6.80;99.90
48666;DHT22;34452;50.796;4.994;2023-04-03T09:10:24;6.90;99.90
48666;DHT22;34452;50.796;4.994;2023-04-03T09:15:44;7.00;99.90
48666;DHT22;34452;50.796;4.994;2023-04-03T09:18:30;7.10;99.90
48666;DHT22;34452;50.796;4.994;2023-04-03T09:23:53;7.30;99.90
48666;DHT22;34452;50.796;4.994;2023-04-03T09:26:23;7.40;99.90
48666;DHT22;34452;50.796;4.994;2023-04-03T09:28:53;7.50;99.90
48666;DHT22;34452;50.796;4.994;2023-04-03T09:31:37;7.60;99.90
48666;DHT22;34452;50.796;4.994;2023-04-03T09:36:47;7.70;99.90
48666;DHT22;34452;50.796;4.994;2023-04-03T09:39:16;7.90;99.90
48666;DHT22;34452;50.796;4.994;2023-04-03T09:44:39;7.80;99.90
48666;DHT22;34452;50.796;4.994;2023-04-03T09:47:25;7.90;99.90
48666;DHT22;34452;50.796;4.994;2023-04-03T09:50:18;8.00;99.90
48666;DHT22;34452;50.796;4.994;2023-04-03T09:52:47;8.10;99.90
48666;DHT22;34452;50.796;4.994;2023-04-03T09:55:17;8.20;99.90
48666;DHT22;34452;50.796;4.994;2023-04-03T09:57:44;8.00;99.90
48666;DHT22;34452;50.796;4.994;2023-04-03T10:00:28;8.10;99.90
48666;DHT22;34452;50.796;4.994;2023-04-03T10:02:56;8.10;99.90
48666;DHT22;34452;50.796;4.994;2023-04-03T10:05:36;8.30;99.90
48666;DHT22;34452;50.796;4.994;2023-04-03T10:11:07;8.40;99.90
48666;DHT22;34452;50.796;4.994;2023-04-03T10:13:35;8.60;99.90
48666;DHT22;34452;50.796;4.994;2023-04-03T10:16:07;8.60;99.90
48666;DHT22;34452;50.796;4.994;2023-04-03T10:19:05;8.50;99.90
48666;DHT22;34452;50.796;4.994;2023-04-03T10:21:55;8.30;98.80
48666;DHT22;34452;50.796;4.994;2023-04-03T10:24:31;8.40;99.00
48666;DHT22;34452;50.796;4.994;2023-04-03T10:35:41;9.10;96.60
48666;DHT22;34452;50.796;4.994;2023-04-03T10:40:59;9.30;95.50
48666;DHT22;34452;50.796;4.994;2023-04-03T10:46:35;9.40;96.50
48666;DHT22;34452;50.796;4.994;2023-04-03T10:52:22;9.40;91.50
48666;DHT22;34452;50.796;4.994;2023-04-03T10:57:23;9.20;90.20
48666;DHT22;34452;50.796;4.994;2023-04-03T10:59:53;9.30;89.20
48666;DHT22;34452;50.796;4.994;2023-04-03T11:02:41;9.30;92.40
48666;DHT22;34452;50.796;4.994;2023-04-03T11:08:34;9.70;88.40
48666;DHT22;34452;50.796;4.994;2023-04-03T11:11:06;9.70;89.20
48666;DHT22;34452;50.796;4.994;2023-04-03T11:13:35;9.80;89.20
48666;DHT22;34452;50.796;4.994;2023-04-03T11:16:04;9.90;87.40
48666;DHT22;34452;50.796;4.994;2023-04-03T11:21:28;9.90;82.10
48666;DHT22;34452;50.796;4.994;2023-04-03T11:23:57;10.00;81.00
48666;DHT22;34452;50.796;4.994;2023-04-03T11:26:29;10.10;79.40
48666;DHT22;34452;50.796;4.994;2023-04-03T11:29:03;10.20;80.30
48666;DHT22;34452;50.796;4.994;2023-04-03T11:31:57;10.30;76.90
48666;DHT22;34452;50.796;4.994;2023-04-03T11:34:46;10.40;74.60
48666;DHT22;34452;50.796;4.994;2023-04-03T11:39:54;10.60;73.90
48666;DHT22;34452;50.796;4.994;2023-04-03T11:42:40;10.60;70.80
48666;DHT22;34452;50.796;4.994;2023-04-03T11:47:54;10.70;70.50
48666;DHT22;34452;50.796;4.994;2023-04-03T12:00:57;11.20;62.50
48666;DHT22;34452;50.796;4.994;2023-04-03T12:05:51;11.30;61.00
48666;DHT22;34452;50.796;4.994;2023-04-03T12:14:14;11.20;58.30
48666;DHT22;34452;50.796;4.994;2023-04-03T12:16:42;11.30;58.90
48666;DHT22;34452;50.796;4.994;2023-04-03T12:24:25;11.70;61.00
48666;DHT22;34452;50.796;4.994;2023-04-03T12:27:05;11.80;59.20
48666;DHT22;34452;50.796;4.994;2023-04-03T12:40:36;12.20;59.90
48666;DHT22;34452;50.796;4.994;2023-04-03T12:51:05;12.20;59.70
48666;DHT22;34452;50.796;4.994;2023-04-03T12:53:34;12.30;58.20
48666;DHT22;34452;50.796;4.994;2023-04-03T12:56:22;12.50;60.10
48666;DHT22;34452;50.796;4.994;2023-04-03T12:58:50;12.60;59.10
48666;DHT22;34452;50.796;4.994;2023-04-03T13:01:18;12.80;58.00
48666;DHT22;34452;50.796;4.994;2023-04-03T13:03:49;12.80;57.90
48666;DHT22;34452;50.796;4.994;2023-04-03T13:06:32;12.90;58.70
48666;DHT22;34452;50.796;4.994;2023-04-03T13:09:00;13.00;58.00
48666;DHT22;34452;50.796;4.994;2023-04-03T13:11:31;13.00;59.00
48666;DHT22;34452;50.796;4.994;2023-04-03T13:14:03;13.10;58.70
48666;DHT22;34452;50.796;4.994;2023-04-03T13:16:31;13.30;57.80
48666;DHT22;34452;50.796;4.994;2023-04-03T13:18:57;13.30;57.50
48666;DHT22;34452;50.796;4.994;2023-04-03T13:21:37;13.30;56.30
48666;DHT22;34452;50.796;4.994;2023-04-03T13:24:03;13.30;56.10
48666;DHT22;34452;50.796;4.994;2023-04-03T13:26:31;13.30;57.00
48666;DHT22;34452;50.796;4.994;2023-04-03T13:29:05;13.00;56.10
48666;DHT22;34452;50.796;4.994;2023-04-03T13:31:35;12.90;55.90
48666;DHT22;34452;50.796;4.994;2023-04-03T13:34:22;13.00;56.80
48666;DHT22;34452;50.796;4.994;2023-04-03T13:39:20;13.30;56.40
48666;DHT22;34452;50.796;4.994;2023-04-03T13:41:49;13.40;55.80
48666;DHT22;34452;50.796;4.994;2023-04-03T13:44:23;13.50;56.00
48666;DHT22;34452;50.796;4.994;2023-04-03T13:49:32;13.40;54.70
48666;DHT22;34452;50.796;4.994;2023-04-03T13:51:59;13.50;56.00
48666;DHT22;34452;50.796;4.994;2023-04-03T13:57:15;13.50;54.20
48666;DHT22;34452;50.796;4.994;2023-04-03T13:59:42;13.20;54.70
48666;DHT22;34452;50.796;4.994;2023-04-03T14:04:51;13.10;54.50
48666;DHT22;34452;50.796;4.994;2023-04-03T14:07:18;13.10;55.50
48666;DHT22;34452;50.796;4.994;2023-04-03T14:09:46;13.20;56.40
48666;DHT22;34452;50.796;4.994;2023-04-03T14:12:17;13.30;55.10
48666;DHT22;34452;50.796;4.994;2023-04-03T14:14:43;13.40;55.00
48666;DHT22;34452;50.796;4.994;2023-04-03T14:17:17;13.40;55.00
48666;DHT22;34452;50.796;4.994;2023-04-03T14:19:43;13.40;55.40
48666;DHT22;34452;50.796;4.994;2023-04-03T14:22:29;13.30;57.50
48666;DHT22;34452;50.796;4.994;2023-04-03T14:24:55;13.40;56.70
48666;DHT22;34452;50.796;4.994;2023-04-03T14:27:22;13.40;56.00
48666;DHT22;34452;50.796;4.994;2023-04-03T14:29:50;13.40;55.60
48666;DHT22;34452;50.796;4.994;2023-04-03T14:32:17;13.60;56.80
48666;DHT22;34452;50.796;4.994;2023-04-03T14:34:44;13.60;54.90
48666;DHT22;34452;50.796;4.994;2023-04-03T14:37:12;13.50;55.20
48666;DHT22;34452;50.796;4.994;2023-04-03T14:39:39;13.40;54.00
48666;DHT22;34452;50.796;4.994;2023-04-03T14:42:05;13.50;54.00
48666;DHT22;34452;50.796;4.994;2023-04-03T14:44:31;13.50;54.10
48666;DHT22;34452;50.796;4.994;2023-04-03T14:46:56;13.70;55.10
48666;DHT22;34452;50.796;4.994;2023-04-03T14:49:25;13.80;55.00
48666;DHT22;34452;50.796;4.994;2023-04-03T14:51:53;13.80;55.60
48666;DHT22;34452;50.796;4.994;2023-04-03T14:54:21;13.90;55.30
48666;DHT22;34452;50.796;4.994;2023-04-03T14:56:51;14.10;51.90
48666;DHT22;34452;50.796;4.994;2023-04-03T14:59:17;14.10;52.00
48666;DHT22;34452;50.796;4.994;2023-04-03T15:01:45;14.20;51.40
48666;DHT22;34452;50.796;4.994;2023-04-03T15:04:14;14.20;52.10
48666;DHT22;34452;50.796;4.994;2023-04-03T15:06:41;14.40;51.50
48666;DHT22;34452;50.796;4.994;2023-04-03T15:11:40;14.40;53.10
48666;DHT22;34452;50.796;4.994;2023-04-03T15:14:08;14.40;52.70
48666;DHT22;34452;50.796;4.994;2023-04-03T15:16:34;14.60;51.80
48666;DHT22;34452;50.796;4.994;2023-04-03T15:19:01;14.40;51.00
48666;DHT22;34452;50.796;4.994;2023-04-03T15:21:26;14.60;51.50
48666;DHT22;34452;50.796;4.994;2023-04-03T15:23:52;14.70;52.90
48666;DHT22;34452;50.796;4.994;2023-04-03T15:26:18;14.80;51.30
48666;DHT22;34452;50.796;4.994;2023-04-03T15:28:44;15.30;50.50
48666;DHT22;34452;50.796;4.994;2023-04-03T15:31:10;15.70;49.60
48666;DHT22;34452;50.796;4.994;2023-04-03T15:33:36;16.20;48.50
48666;DHT22;34452;50.796;4.994;2023-04-03T15:36:03;16.70;47.70
48666;DHT22;34452;50.796;4.994;2023-04-03T15:38:28;17.00;46.20
48666;DHT22;34452;50.796;4.994;2023-04-03T15:40:55;17.30;44.90
48666;DHT22;34452;50.796;4.994;2023-04-03T15:43:21;17.60;44.10
48666;DHT22;34452;50.796;4.994;2023-04-03T15:45:47;17.80;44.00
48666;DHT22;34452;50.796;4.994;2023-04-03T15:48:13;17.80;43.70
48666;DHT22;34452;50.796;4.994;2023-04-03T15:50:39;17.50;43.80
48666;DHT22;34452;50.796;4.994;2023-04-03T15:53:05;17.00;43.50
48666;DHT22;34452;50.796;4.994;2023-04-03T15:55:33;17.10;43.90
48666;DHT22;34452;50.796;4.994;2023-04-03T15:57:59;17.60;43.20
48666;DHT22;34452;50.796;4.994;2023-04-03T16:00:26;18.10;41.30
48666;DHT22;34452;50.796;4.994;2023-04-03T16:02:55;18.50;41.70
48666;DHT22;34452;50.796;4.994;2023-04-03T16:05:23;18.90;41.10
48666;DHT22;34452;50.796;4.994;2023-04-03T16:07:48;19.30;41.00
48666;DHT22;34452;50.796;4.994;2023-04-03T16:10:16;19.40;40.20
48666;DHT22;34452;50.796;4.994;2023-04-03T16:12:43;19.60;39.20
48666;DHT22;34452;50.796;4.994;2023-04-03T16:15:09;19.70;39.60
48666;DHT22;34452;50.796;4.994;2023-04-03T16:17:35;19.70;37.60
48666;DHT22;34452;50.796;4.994;2023-04-03T16:20:03;19.40;37.60
48666;DHT22;34452;50.796;4.994;2023-04-03T16:22:29;19.50;36.90
48666;DHT22;34452;50.796;4.994;2023-04-03T16:24:55;19.70;36.40
48666;DHT22;34452;50.796;4.994;2023-04-03T16:27:22;19.80;37.00
48666;DHT22;34452;50.796;4.994;2023-04-03T16:29:53;19.90;36.20
48666;DHT22;34452;50.796;4.994;2023-04-03T16:32:20;20.00;35.90
48666;DHT22;34452;50.796;4.994;2023-04-03T16:34:46;19.90;35.50
48666;DHT22;34452;50.796;4.994;2023-04-03T16:37:11;20.00;35.70
48666;DHT22;34452;50.796;4.994;2023-04-03T16:39:37;20.00;35.50
48666;DHT22;34452;50.796;4.994;2023-04-03T16:42:03;20.00;36.60
48666;DHT22;34452;50.796;4.994;2023-04-03T16:44:28;20.00;36.90
48666;DHT22;34452;50.796;4.994;2023-04-03T16:46:54;20.10;36.30
48666;DHT22;34452;50.796;4.994;2023-04-03T16:49:20;20.10;35.80
48666;DHT22;34452;50.796;4.994;2023-04-03T16:51:47;19.90;36.00
48666;DHT22;34452;50.796;4.994;2023-04-03T16:54:13;19.90;36.80
48666;DHT22;34452;50.796;4.994;2023-04-03T16:56:39;19.80;36.90
48666;DHT22;34452;50.796;4.994;2023-04-03T16:59:05;19.70;35.20
48666;DHT22;34452;50.796;4.994;2023-04-03T17:01:31;19.70;36.20
48666;DHT22;34452;50.796;4.994;2023-04-03T17:03:57;19.60;35.80
48666;DHT22;34452;50.796;4.994;2023-04-03T17:06:23;19.40;37.10
48666;DHT22;34452;50.796;4.994;2023-04-03T17:08:50;19.20;36.00
48666;DHT22;34452;50.796;4.994;2023-04-03T17:11:16;19.20;36.40
48666;DHT22;34452;50.796;4.994;2023-04-03T17:13:42;18.70;36.30
48666;DHT22;34452;50.796;4.994;2023-04-03T17:16:11;18.20;37.00
48666;DHT22;34452;50.796;4.994;2023-04-03T17:18:37;18.10;37.20
48666;DHT22;34452;50.796;4.994;2023-04-03T17:21:04;17.80;37.50
48666;DHT22;34452;50.796;4.994;2023-04-03T17:23:30;17.30;39.10
48666;DHT22;34452;50.796;4.994;2023-04-03T17:25:56;16.10;39.80
48666;DHT22;34452;50.796;4.994;2023-04-03T17:28:22;14.80;41.50
48666;DHT22;34452;50.796;4.994;2023-04-03T17:30:54;14.00;44.00
48666;DHT22;34452;50.796;4.994;2023-04-03T17:33:20;13.40;45.80
48666;DHT22;34452;50.796;4.994;2023-04-03T17:35:46;12.80;47.50
48666;DHT22;34452;50.796;4.994;2023-04-03T17:38:12;12.40;48.10